sensor_id;sensor_type;location;lat;lon;timestamp;P1;durP1;ratioP1;P2;durP2;ratioP2
55288;SDS011;41154;45.394;5.734;2024-02-21T00:02:03;18.23;;;7.70;;
55288;SDS011;41154;45.394;5.734;2024-02-21T00:04:29;15.93;;;7.43;;
55288;SDS011;41154;45.394;5.734;2024-02-21T00:06:55;19.98;;;9.20;;
55288;SDS011;41154;45.394;5.734;2024-02-21T00:09:20;20.67;;;8.90;;
55288;SDS011;41154;45.394;5.734;2024-02-21T00:11:46;18.52;;;8.27;;
55288;SDS011;41154;45.394;5.734;2024-02-21T00:14:11;15.73;;;7.03;;
55288;SDS011;41154;45.394;5.734;2024-02-21T00:16:36;14.23;;;7.45;;
55288;SDS011;41154;45.394;5.734;2024-02-21T00:19:02;16.30;;;6.28;;
55288;SDS011;41154;45.394;5.734;2024-02-21T00:21:28;17.55;;;7.28;;
55288;SDS011;41154;45.394;5.734;2024-02-21T00:23:53;18.27;;;9.65;;
55288;SDS011;41154;45.394;5.734;2024-02-21T00:26:19;20.42;;;9.85;;
55288;SDS011;41154;45.394;5.734;2024-02-21T00:28:44;16.40;;;8.25;;
55288;SDS011;41154;45.394;5.734;2024-02-21T00:31:10;16.50;;;7.95;;
55288;SDS011;41154;45.394;5.734;2024-02-21T00:33:36;14.57;;;8.13;;
55288;SDS011;41154;45.394;5.734;2024-02-21T00:36:01;20.33;;;8.57;;
55288;SDS011;41154;45.394;5.734;2024-02-21T00:38:27;21.55;;;8.88;;
55288;SDS011;41154;45.394;5.734;2024-02-21T00:40:52;14.80;;;8.32;;
55288;SDS011;41154;45.394;5.734;2024-02-21T00:43:18;24.67;;;9.88;;
55288;SDS011;41154;45.394;5.734;2024-02-21T00:45:43;22.58;;;10.48;;
55288;SDS011;41154;45.394;5.734;2024-02-21T00:48:09;18.80;;;8.68;;
55288;SDS011;41154;45.394;5.734;2024-02-21T00:50:34;16.08;;;8.20;;
55288;SDS011;41154;45.394;5.734;2024-02-21T00:53:00;13.80;;;7.63;;
55288;SDS011;41154;45.394;5.734;2024-02-21T00:55:25;17.13;;;9.13;;
55288;SDS011;41154;45.394;5.734;2024-02-21T00:57:51;21.58;;;9.38;;
55288;SDS011;41154;45.394;5.734;2024-02-21T01:00:16;20.63;;;10.18;;
55288;SDS011;41154;45.394;5.734;2024-02-21T01:02:42;24.00;;;9.90;;
55288;SDS011;41154;45.394;5.734;2024-02-21T01:05:07;23.17;;;9.35;;
55288;SDS011;41154;45.394;5.734;2024-02-21T01:07:33;22.33;;;9.32;;
55288;SDS011;41154;45.394;5.734;2024-02-21T01:09:58;16.73;;;8.18;;
55288;SDS011;41154;45.394;5.734;2024-02-21T01:12:24;17.65;;;7.85;;
55288;SDS011;41154;45.394;5.734;2024-02-21T01:14:50;15.48;;;7.88;;
55288;SDS011;41154;45.394;5.734;2024-02-21T01:17:15;16.02;;;7.93;;
55288;SDS011;41154;45.394;5.734;2024-02-21T01:19:41;16.50;;;8.02;;
55288;SDS011;41154;45.394;5.734;2024-02-21T01:22:06;17.42;;;7.90;;
55288;SDS011;41154;45.394;5.734;2024-02-21T01:24:32;14.18;;;7.68;;
55288;SDS011;41154;45.394;5.734;2024-02-21T01:26:58;15.75;;;8.73;;
55288;SDS011;41154;45.394;5.734;2024-02-21T01:29:23;17.65;;;7.88;;
55288;SDS011;41154;45.394;5.734;2024-02-21T01:31:49;16.65;;;8.48;;
55288;SDS011;41154;45.394;5.734;2024-02-21T01:34:14;16.90;;;8.48;;
55288;SDS011;41154;45.394;5.734;2024-02-21T01:36:40;16.88;;;7.38;;
55288;SDS011;41154;45.394;5.734;2024-02-21T01:39:06;15.85;;;8.15;;
55288;SDS011;41154;45.394;5.734;2024-02-21T01:41:32;12.18;;;7.47;;
55288;SDS011;41154;45.394;5.734;2024-02-21T01:43:58;19.58;;;8.00;;
55288;SDS011;41154;45.394;5.734;2024-02-21T01:46:24;15.45;;;7.68;;
55288;SDS011;41154;45.394;5.734;2024-02-21T01:48:53;14.00;;;8.07;;
55288;SDS011;41154;45.394;5.734;2024-02-21T01:51:19;13.63;;;7.20;;
55288;SDS011;41154;45.394;5.734;2024-02-21T01:53:45;16.75;;;8.45;;
55288;SDS011;41154;45.394;5.734;2024-02-21T01:56:12;18.27;;;8.07;;
55288;SDS011;41154;45.394;5.734;2024-02-21T01:58:37;20.35;;;9.73;;
55288;SDS011;41154;45.394;5.734;2024-02-21T02:01:04;23.15;;;9.48;;
55288;SDS011;41154;45.394;5.734;2024-02-21T02:03:29;20.75;;;10.02;;
55288;SDS011;41154;45.394;5.734;2024-02-21T02:05:56;17.10;;;9.55;;
55288;SDS011;41154;45.394;5.734;2024-02-21T02:08:21;17.58;;;8.65;;
55288;SDS011;41154;45.394;5.734;2024-02-21T02:10:48;14.93;;;8.27;;
55288;SDS011;41154;45.394;5.734;2024-02-21T02:13:13;21.92;;;9.48;;
55288;SDS011;41154;45.394;5.734;2024-02-21T02:15:43;16.88;;;9.38;;
55288;SDS011;41154;45.394;5.734;2024-02-21T02:18:09;17.85;;;8.80;;
55288;SDS011;41154;45.394;5.734;2024-02-21T02:20:35;19.75;;;8.55;;
55288;SDS011;41154;45.394;5.734;2024-02-21T02:23:01;16.35;;;8.05;;
55288;SDS011;41154;45.394;5.734;2024-02-21T02:25:27;14.77;;;8.23;;
55288;SDS011;41154;45.394;5.734;2024-02-21T02:27:53;12.73;;;7.47;;
55288;SDS011;41154;45.394;5.734;2024-02-21T02:30:18;18.73;;;7.53;;
55288;SDS011;41154;45.394;5.734;2024-02-21T02:32:44;15.07;;;8.55;;
55288;SDS011;41154;45.394;5.734;2024-02-21T02:35:11;20.85;;;8.90;;
55288;SDS011;41154;45.394;5.734;2024-02-21T02:37:36;17.83;;;8.60;;
55288;SDS011;41154;45.394;5.734;2024-02-21T02:40:05;17.20;;;8.23;;
55288;SDS011;41154;45.394;5.734;2024-02-21T02:42:30;12.88;;;7.38;;
55288;SDS011;41154;45.394;5.734;2024-02-21T02:44:56;16.25;;;7.00;;
55288;SDS011;41154;45.394;5.734;2024-02-21T02:47:22;14.45;;;7.47;;
55288;SDS011;41154;45.394;5.734;2024-02-21T02:49:48;12.80;;;6.82;;
55288;SDS011;41154;45.394;5.734;2024-02-21T02:52:18;16.27;;;7.03;;
55288;SDS011;41154;45.394;5.734;2024-02-21T02:54:44;16.17;;;7.90;;
55288;SDS011;41154;45.394;5.734;2024-02-21T02:57:10;18.85;;;8.40;;
55288;SDS011;41154;45.394;5.734;2024-02-21T02:59:35;12.07;;;7.70;;
55288;SDS011;41154;45.394;5.734;2024-02-21T03:02:01;17.65;;;8.15;;
55288;SDS011;41154;45.394;5.734;2024-02-21T03:04:26;14.98;;;7.90;;
55288;SDS011;41154;45.394;5.734;2024-02-21T03:06:52;13.75;;;7.75;;
55288;SDS011;41154;45.394;5.734;2024-02-21T03:09:17;14.80;;;8.00;;
55288;SDS011;41154;45.394;5.734;2024-02-21T03:11:43;18.10;;;8.02;;
55288;SDS011;41154;45.394;5.734;2024-02-21T03:14:10;12.45;;;7.40;;
55288;SDS011;41154;45.394;5.734;2024-02-21T03:16:35;16.90;;;8.27;;
55288;SDS011;41154;45.394;5.734;2024-02-21T03:19:01;16.58;;;7.68;;
55288;SDS011;41154;45.394;5.734;2024-02-21T03:21:27;16.17;;;8.18;;
55288;SDS011;41154;45.394;5.734;2024-02-21T03:23:52;17.77;;;7.68;;
55288;SDS011;41154;45.394;5.734;2024-02-21T03:26:18;19.48;;;8.57;;
55288;SDS011;41154;45.394;5.734;2024-02-21T03:28:44;15.05;;;8.27;;
55288;SDS011;41154;45.394;5.734;2024-02-21T03:31:11;16.77;;;8.52;;
55288;SDS011;41154;45.394;5.734;2024-02-21T03:33:39;16.17;;;8.02;;
55288;SDS011;41154;45.394;5.734;2024-02-21T03:36:04;18.73;;;7.78;;
55288;SDS011;41154;45.394;5.734;2024-02-21T03:38:30;12.68;;;6.55;;
55288;SDS011;41154;45.394;5.734;2024-02-21T03:40:55;11.43;;;6.13;;
55288;SDS011;41154;45.394;5.734;2024-02-21T03:43:21;15.93;;;7.47;;
55288;SDS011;41154;45.394;5.734;2024-02-21T03:45:46;11.15;;;6.03;;
55288;SDS011;41154;45.394;5.734;2024-02-21T03:48:12;17.27;;;8.32;;
55288;SDS011;41154;45.394;5.734;2024-02-21T03:50:38;15.82;;;8.00;;
55288;SDS011;41154;45.394;5.734;2024-02-21T03:53:04;19.85;;;7.72;;
55288;SDS011;41154;45.394;5.734;2024-02-21T03:55:29;11.75;;;6.63;;
55288;SDS011;41154;45.394;5.734;2024-02-21T03:57:55;12.98;;;6.53;;
55288;SDS011;41154;45.394;5.734;2024-02-21T04:00:20;17.30;;;6.93;;
55288;SDS011;41154;45.394;5.734;2024-02-21T04:02:46;21.00;;;9.32;;
55288;SDS011;41154;45.394;5.734;2024-02-21T04:05:11;17.52;;;7.88;;
55288;SDS011;41154;45.394;5.734;2024-02-21T04:07:37;16.13;;;7.20;;
55288;SDS011;41154;45.394;5.734;2024-02-21T04:10:03;14.90;;;7.70;;
55288;SDS011;41154;45.394;5.734;2024-02-21T04:12:28;13.43;;;7.18;;
55288;SDS011;41154;45.394;5.734;2024-02-21T04:14:54;15.55;;;7.85;;
55288;SDS011;41154;45.394;5.734;2024-02-21T04:17:20;19.42;;;9.02;;
55288;SDS011;41154;45.394;5.734;2024-02-21T04:19:45;17.38;;;8.57;;
55288;SDS011;41154;45.394;5.734;2024-02-21T04:22:11;17.70;;;9.00;;
55288;SDS011;41154;45.394;5.734;2024-02-21T04:24:36;20.73;;;8.88;;
55288;SDS011;41154;45.394;5.734;2024-02-21T04:27:02;17.13;;;7.90;;
55288;SDS011;41154;45.394;5.734;2024-02-21T04:29:27;16.10;;;7.47;;
55288;SDS011;41154;45.394;5.734;2024-02-21T04:31:53;14.90;;;7.68;;
55288;SDS011;41154;45.394;5.734;2024-02-21T04:34:19;16.90;;;7.95;;
55288;SDS011;41154;45.394;5.734;2024-02-21T04:36:44;13.73;;;7.25;;
55288;SDS011;41154;45.394;5.734;2024-02-21T04:39:10;15.13;;;8.05;;
55288;SDS011;41154;45.394;5.734;2024-02-21T04:41:36;14.15;;;7.07;;
55288;SDS011;41154;45.394;5.734;2024-02-21T04:44:02;14.25;;;7.85;;
55288;SDS011;41154;45.394;5.734;2024-02-21T04:46:29;14.43;;;6.63;;
55288;SDS011;41154;45.394;5.734;2024-02-21T04:48:54;14.10;;;7.35;;
55288;SDS011;41154;45.394;5.734;2024-02-21T04:51:21;16.30;;;7.65;;
55288;SDS011;41154;45.394;5.734;2024-02-21T04:53:47;19.40;;;11.20;;
55288;SDS011;41154;45.394;5.734;2024-02-21T04:56:12;15.00;;;8.60;;
55288;SDS011;41154;45.394;5.734;2024-02-21T04:58:38;17.98;;;9.52;;
55288;SDS011;41154;45.394;5.734;2024-02-21T05:01:04;18.05;;;9.27;;
55288;SDS011;41154;45.394;5.734;2024-02-21T05:03:30;18.77;;;9.30;;
55288;SDS011;41154;45.394;5.734;2024-02-21T05:05:56;14.32;;;7.60;;
55288;SDS011;41154;45.394;5.734;2024-02-21T05:08:21;12.43;;;8.00;;
55288;SDS011;41154;45.394;5.734;2024-02-21T05:10:47;14.63;;;7.47;;
55288;SDS011;41154;45.394;5.734;2024-02-21T05:13:12;11.50;;;6.60;;
55288;SDS011;41154;45.394;5.734;2024-02-21T05:15:38;12.93;;;7.18;;
55288;SDS011;41154;45.394;5.734;2024-02-21T05:18:03;12.95;;;7.50;;
55288;SDS011;41154;45.394;5.734;2024-02-21T05:20:29;13.52;;;7.30;;
55288;SDS011;41154;45.394;5.734;2024-02-21T05:22:54;14.80;;;7.43;;
55288;SDS011;41154;45.394;5.734;2024-02-21T05:25:20;13.82;;;7.05;;
55288;SDS011;41154;45.394;5.734;2024-02-21T05:27:45;14.65;;;7.22;;
55288;SDS011;41154;45.394;5.734;2024-02-21T05:30:11;13.43;;;6.93;;
55288;SDS011;41154;45.394;5.734;2024-02-21T05:32:37;13.63;;;7.25;;
55288;SDS011;41154;45.394;5.734;2024-02-21T05:35:02;12.20;;;6.55;;
55288;SDS011;41154;45.394;5.734;2024-02-21T05:37:28;15.50;;;6.90;;
55288;SDS011;41154;45.394;5.734;2024-02-21T05:39:54;13.00;;;6.85;;
55288;SDS011;41154;45.394;5.734;2024-02-21T05:42:19;15.05;;;7.38;;
55288;SDS011;41154;45.394;5.734;2024-02-21T05:44:45;10.75;;;6.03;;
55288;SDS011;41154;45.394;5.734;2024-02-21T05:47:10;13.55;;;7.03;;
55288;SDS011;41154;45.394;5.734;2024-02-21T05:49:37;13.90;;;7.20;;
55288;SDS011;41154;45.394;5.734;2024-02-21T05:52:03;12.50;;;7.32;;
55288;SDS011;41154;45.394;5.734;2024-02-21T05:54:29;14.20;;;6.90;;
55288;SDS011;41154;45.394;5.734;2024-02-21T05:56:54;13.93;;;7.43;;
55288;SDS011;41154;45.394;5.734;2024-02-21T05:59:20;13.35;;;6.68;;
55288;SDS011;41154;45.394;5.734;2024-02-21T06:01:45;12.63;;;7.00;;
55288;SDS011;41154;45.394;5.734;2024-02-21T06:04:19;13.57;;;7.00;;
55288;SDS011;41154;45.394;5.734;2024-02-21T06:06:45;13.10;;;7.55;;
55288;SDS011;41154;45.394;5.734;2024-02-21T06:09:10;14.68;;;7.60;;
55288;SDS011;41154;45.394;5.734;2024-02-21T06:11:36;12.40;;;6.90;;
55288;SDS011;41154;45.394;5.734;2024-02-21T06:14:02;13.77;;;6.72;;
55288;SDS011;41154;45.394;5.734;2024-02-21T06:16:28;18.13;;;7.55;;
55288;SDS011;41154;45.394;5.734;2024-02-21T06:18:54;15.88;;;7.40;;
55288;SDS011;41154;45.394;5.734;2024-02-21T06:21:19;12.38;;;7.25;;
55288;SDS011;41154;45.394;5.734;2024-02-21T06:23:44;15.45;;;7.72;;
55288;SDS011;41154;45.394;5.734;2024-02-21T06:26:10;19.65;;;8.02;;
55288;SDS011;41154;45.394;5.734;2024-02-21T06:28:35;16.55;;;8.70;;
55288;SDS011;41154;45.394;5.734;2024-02-21T06:31:01;17.67;;;8.32;;
55288;SDS011;41154;45.394;5.734;2024-02-21T06:33:26;14.93;;;8.57;;
55288;SDS011;41154;45.394;5.734;2024-02-21T06:35:52;14.90;;;7.43;;
55288;SDS011;41154;45.394;5.734;2024-02-21T06:38:20;15.18;;;7.85;;
55288;SDS011;41154;45.394;5.734;2024-02-21T06:40:46;17.38;;;8.38;;
55288;SDS011;41154;45.394;5.734;2024-02-21T06:43:16;18.63;;;9.05;;
55288;SDS011;41154;45.394;5.734;2024-02-21T06:45:42;28.33;;;14.45;;
55288;SDS011;41154;45.394;5.734;2024-02-21T06:48:07;26.70;;;14.52;;
55288;SDS011;41154;45.394;5.734;2024-02-21T06:50:33;23.98;;;12.55;;
55288;SDS011;41154;45.394;5.734;2024-02-21T06:52:58;22.88;;;11.88;;
55288;SDS011;41154;45.394;5.734;2024-02-21T06:55:24;20.75;;;9.95;;
55288;SDS011;41154;45.394;5.734;2024-02-21T06:57:49;17.38;;;9.35;;
55288;SDS011;41154;45.394;5.734;2024-02-21T07:00:15;16.38;;;8.20;;
55288;SDS011;41154;45.394;5.734;2024-02-21T07:02:41;16.58;;;8.80;;
55288;SDS011;41154;45.394;5.734;2024-02-21T07:05:07;14.20;;;8.27;;
55288;SDS011;41154;45.394;5.734;2024-02-21T07:07:32;14.90;;;8.18;;
55288;SDS011;41154;45.394;5.734;2024-02-21T07:10:00;23.80;;;12.43;;
55288;SDS011;41154;45.394;5.734;2024-02-21T07:12:26;22.13;;;11.32;;
55288;SDS011;41154;45.394;5.734;2024-02-21T07:14:51;33.22;;;16.20;;
55288;SDS011;41154;45.394;5.734;2024-02-21T07:17:17;20.50;;;11.05;;
55288;SDS011;41154;45.394;5.734;2024-02-21T07:19:42;24.80;;;10.93;;
55288;SDS011;41154;45.394;5.734;2024-02-21T07:22:08;21.20;;;9.27;;
55288;SDS011;41154;45.394;5.734;2024-02-21T07:24:34;18.67;;;9.35;;
55288;SDS011;41154;45.394;5.734;2024-02-21T07:26:59;17.75;;;9.45;;
55288;SDS011;41154;45.394;5.734;2024-02-21T07:29:30;16.70;;;9.05;;
55288;SDS011;41154;45.394;5.734;2024-02-21T07:31:55;21.73;;;11.35;;
55288;SDS011;41154;45.394;5.734;2024-02-21T07:34:21;22.23;;;11.50;;
55288;SDS011;41154;45.394;5.734;2024-02-21T07:36:46;23.92;;;12.60;;
55288;SDS011;41154;45.394;5.734;2024-02-21T07:39:12;24.63;;;11.43;;
55288;SDS011;41154;45.394;5.734;2024-02-21T07:41:37;26.33;;;13.02;;
55288;SDS011;41154;45.394;5.734;2024-02-21T07:44:04;22.73;;;13.15;;
55288;SDS011;41154;45.394;5.734;2024-02-21T07:46:30;24.30;;;10.88;;
55288;SDS011;41154;45.394;5.734;2024-02-21T07:48:55;27.02;;;10.85;;
55288;SDS011;41154;45.394;5.734;2024-02-21T07:51:21;22.40;;;10.15;;
55288;SDS011;41154;45.394;5.734;2024-02-21T07:53:46;29.23;;;10.77;;
55288;SDS011;41154;45.394;5.734;2024-02-21T07:56:13;26.42;;;11.32;;
55288;SDS011;41154;45.394;5.734;2024-02-21T07:58:39;19.65;;;10.52;;
55288;SDS011;41154;45.394;5.734;2024-02-21T08:01:05;18.30;;;9.93;;
55288;SDS011;41154;45.394;5.734;2024-02-21T08:03:30;19.35;;;9.90;;
55288;SDS011;41154;45.394;5.734;2024-02-21T08:05:56;21.60;;;9.77;;
55288;SDS011;41154;45.394;5.734;2024-02-21T08:08:21;23.20;;;10.43;;
55288;SDS011;41154;45.394;5.734;2024-02-21T08:10:50;38.13;;;19.50;;
55288;SDS011;41154;45.394;5.734;2024-02-21T08:13:16;41.28;;;19.73;;
55288;SDS011;41154;45.394;5.734;2024-02-21T08:15:41;37.47;;;16.77;;
55288;SDS011;41154;45.394;5.734;2024-02-21T08:18:07;35.53;;;15.98;;
55288;SDS011;41154;45.394;5.734;2024-02-21T08:20:33;31.10;;;14.13;;
55288;SDS011;41154;45.394;5.734;2024-02-21T08:22:58;32.38;;;12.10;;
55288;SDS011;41154;45.394;5.734;2024-02-21T08:25:24;28.65;;;13.00;;
55288;SDS011;41154;45.394;5.734;2024-02-21T08:27:50;24.70;;;11.25;;
55288;SDS011;41154;45.394;5.734;2024-02-21T08:30:26;14.77;;;9.32;;
55288;SDS011;41154;45.394;5.734;2024-02-21T08:32:52;22.80;;;11.30;;
55288;SDS011;41154;45.394;5.734;2024-02-21T08:35:19;24.92;;;12.98;;
55288;SDS011;41154;45.394;5.734;2024-02-21T08:37:47;29.17;;;14.73;;
55288;SDS011;41154;45.394;5.734;2024-02-21T08:40:13;23.60;;;11.25;;
55288;SDS011;41154;45.394;5.734;2024-02-21T08:42:43;25.80;;;11.68;;
55288;SDS011;41154;45.394;5.734;2024-02-21T08:45:09;23.08;;;10.82;;
55288;SDS011;41154;45.394;5.734;2024-02-21T08:47:35;24.77;;;11.32;;
55288;SDS011;41154;45.394;5.734;2024-02-21T08:50:02;23.10;;;10.90;;
55288;SDS011;41154;45.394;5.734;2024-02-21T08:52:28;25.00;;;11.50;;
55288;SDS011;41154;45.394;5.734;2024-02-21T08:54:53;21.13;;;9.85;;
55288;SDS011;41154;45.394;5.734;2024-02-21T08:57:19;19.83;;;8.88;;
55288;SDS011;41154;45.394;5.734;2024-02-21T08:59:45;20.50;;;10.07;;
55288;SDS011;41154;45.394;5.734;2024-02-21T09:02:12;23.85;;;11.80;;
55288;SDS011;41154;45.394;5.734;2024-02-21T09:04:38;21.60;;;10.05;;
55288;SDS011;41154;45.394;5.734;2024-02-21T09:07:04;18.88;;;9.27;;
55288;SDS011;41154;45.394;5.734;2024-02-21T09:09:29;18.00;;;9.20;;
55288;SDS011;41154;45.394;5.734;2024-02-21T09:11:57;14.90;;;8.55;;
55288;SDS011;41154;45.394;5.734;2024-02-21T09:14:23;14.40;;;8.27;;
55288;SDS011;41154;45.394;5.734;2024-02-21T09:16:49;14.07;;;6.88;;
55288;SDS011;41154;45.394;5.734;2024-02-21T09:19:15;10.18;;;5.97;;
55288;SDS011;41154;45.394;5.734;2024-02-21T09:21:40;12.98;;;7.22;;
55288;SDS011;41154;45.394;5.734;2024-02-21T09:24:06;17.15;;;7.47;;
55288;SDS011;41154;45.394;5.734;2024-02-21T09:26:32;17.08;;;7.47;;
55288;SDS011;41154;45.394;5.734;2024-02-21T09:28:58;16.70;;;9.07;;
55288;SDS011;41154;45.394;5.734;2024-02-21T09:31:23;16.90;;;9.88;;
55288;SDS011;41154;45.394;5.734;2024-02-21T09:33:49;16.33;;;9.13;;
55288;SDS011;41154;45.394;5.734;2024-02-21T09:36:15;13.70;;;8.77;;
55288;SDS011;41154;45.394;5.734;2024-02-21T09:38:40;14.60;;;8.48;;
55288;SDS011;41154;45.394;5.734;2024-02-21T09:43:45;13.07;;;7.68;;
55288;SDS011;41154;45.394;5.734;2024-02-21T09:46:13;12.85;;;6.85;;
55288;SDS011;41154;45.394;5.734;2024-02-21T09:51:11;16.35;;;6.70;;
55288;SDS011;41154;45.394;5.734;2024-02-21T09:53:39;11.88;;;5.97;;
55288;SDS011;41154;45.394;5.734;2024-02-21T09:56:10;9.02;;;5.97;;
55288;SDS011;41154;45.394;5.734;2024-02-21T09:58:36;9.93;;;5.70;;
55288;SDS011;41154;45.394;5.734;2024-02-21T10:01:03;8.00;;;5.30;;
55288;SDS011;41154;45.394;5.734;2024-02-21T10:03:32;12.68;;;6.40;;
55288;SDS011;41154;45.394;5.734;2024-02-21T10:05:58;9.02;;;5.70;;
55288;SDS011;41154;45.394;5.734;2024-02-21T10:08:26;10.55;;;6.03;;
55288;SDS011;41154;45.394;5.734;2024-02-21T10:10:52;11.40;;;5.60;;
55288;SDS011;41154;45.394;5.734;2024-02-21T10:13:28;11.27;;;5.75;;
55288;SDS011;41154;45.394;5.734;2024-02-21T10:16:04;13.27;;;5.72;;
55288;SDS011;41154;45.394;5.734;2024-02-21T10:18:31;8.35;;;5.30;;
55288;SDS011;41154;45.394;5.734;2024-02-21T10:23:26;8.50;;;5.15;;
55288;SDS011;41154;45.394;5.734;2024-02-21T10:25:52;8.57;;;4.75;;
55288;SDS011;41154;45.394;5.734;2024-02-21T10:28:18;13.25;;;5.10;;
55288;SDS011;41154;45.394;5.734;2024-02-21T10:30:51;10.60;;;5.13;;
55288;SDS011;41154;45.394;5.734;2024-02-21T10:33:17;7.63;;;4.57;;
55288;SDS011;41154;45.394;5.734;2024-02-21T10:35:47;7.15;;;4.15;;
55288;SDS011;41154;45.394;5.734;2024-02-21T10:38:15;8.30;;;4.47;;
55288;SDS011;41154;45.394;5.734;2024-02-21T10:40:40;8.02;;;4.18;;
55288;SDS011;41154;45.394;5.734;2024-02-21T10:43:08;7.25;;;3.28;;
55288;SDS011;41154;45.394;5.734;2024-02-21T10:45:37;3.63;;;2.45;;
55288;SDS011;41154;45.394;5.734;2024-02-21T10:50:46;3.85;;;1.80;;
55288;SDS011;41154;45.394;5.734;2024-02-21T10:53:29;2.22;;;1.45;;
55288;SDS011;41154;45.394;5.734;2024-02-21T10:58:40;5.90;;;2.30;;
55288;SDS011;41154;45.394;5.734;2024-02-21T11:01:08;4.50;;;2.50;;
55288;SDS011;41154;45.394;5.734;2024-02-21T11:03:34;3.63;;;1.80;;
55288;SDS011;41154;45.394;5.734;2024-02-21T11:06:01;4.82;;;2.10;;
55288;SDS011;41154;45.394;5.734;2024-02-21T11:08:27;5.18;;;2.08;;
55288;SDS011;41154;45.394;5.734;2024-02-21T11:10:56;3.53;;;1.77;;
55288;SDS011;41154;45.394;5.734;2024-02-21T11:13:31;6.53;;;2.33;;
55288;SDS011;41154;45.394;5.734;2024-02-21T11:16:07;2.78;;;2.30;;
55288;SDS011;41154;45.394;5.734;2024-02-21T11:18:37;3.92;;;2.00;;
55288;SDS011;41154;45.394;5.734;2024-02-21T11:21:03;3.47;;;2.70;;
55288;SDS011;41154;45.394;5.734;2024-02-21T11:23:32;5.28;;;2.22;;
55288;SDS011;41154;45.394;5.734;2024-02-21T11:26:08;4.82;;;2.80;;
55288;SDS011;41154;45.394;5.734;2024-02-21T11:28:34;5.75;;;2.60;;
55288;SDS011;41154;45.394;5.734;2024-02-21T11:31:08;5.72;;;2.60;;
55288;SDS011;41154;45.394;5.734;2024-02-21T11:33:41;5.18;;;2.30;;
55288;SDS011;41154;45.394;5.734;2024-02-21T11:36:08;3.15;;;1.98;;
55288;SDS011;41154;45.394;5.734;2024-02-21T11:38:34;4.38;;;2.33;;
55288;SDS011;41154;45.394;5.734;2024-02-21T11:40:59;3.53;;;2.00;;
55288;SDS011;41154;45.394;5.734;2024-02-21T11:43:25;4.05;;;1.60;;
55288;SDS011;41154;45.394;5.734;2024-02-21T11:45:58;2.40;;;1.60;;
55288;SDS011;41154;45.394;5.734;2024-02-21T11:48:25;3.72;;;1.90;;
55288;SDS011;41154;45.394;5.734;2024-02-21T11:50:54;3.90;;;2.30;;
55288;SDS011;41154;45.394;5.734;2024-02-21T11:53:21;4.28;;;2.00;;
55288;SDS011;41154;45.394;5.734;2024-02-21T11:55:47;4.07;;;2.20;;
55288;SDS011;41154;45.394;5.734;2024-02-21T11:58:12;5.45;;;2.33;;
55288;SDS011;41154;45.394;5.734;2024-02-21T12:00:38;5.43;;;2.38;;
55288;SDS011;41154;45.394;5.734;2024-02-21T12:03:05;4.05;;;2.72;;
55288;SDS011;41154;45.394;5.734;2024-02-21T12:05:31;5.22;;;2.30;;
55288;SDS011;41154;45.394;5.734;2024-02-21T12:07:57;3.70;;;2.55;;
55288;SDS011;41154;45.394;5.734;2024-02-21T12:10:26;4.03;;;2.50;;
55288;SDS011;41154;45.394;5.734;2024-02-21T12:13:05;5.03;;;2.30;;
55288;SDS011;41154;45.394;5.734;2024-02-21T12:15:34;4.88;;;2.50;;
55288;SDS011;41154;45.394;5.734;2024-02-21T12:18:00;5.18;;;2.75;;
55288;SDS011;41154;45.394;5.734;2024-02-21T12:20:26;9.60;;;2.65;;
55288;SDS011;41154;45.394;5.734;2024-02-21T12:22:52;2.90;;;2.38;;
55288;SDS011;41154;45.394;5.734;2024-02-21T12:25:20;5.28;;;2.80;;
55288;SDS011;41154;45.394;5.734;2024-02-21T12:27:52;5.50;;;2.92;;
55288;SDS011;41154;45.394;5.734;2024-02-21T12:30:18;4.07;;;2.53;;
55288;SDS011;41154;45.394;5.734;2024-02-21T12:32:45;3.08;;;2.10;;
55288;SDS011;41154;45.394;5.734;2024-02-21T12:35:11;5.22;;;2.15;;
55288;SDS011;41154;45.394;5.734;2024-02-21T12:37:37;3.45;;;2.10;;
55288;SDS011;41154;45.394;5.734;2024-02-21T12:40:06;4.57;;;1.88;;
55288;SDS011;41154;45.394;5.734;2024-02-21T12:42:34;3.63;;;2.20;;
55288;SDS011;41154;45.394;5.734;2024-02-21T12:45:00;4.72;;;2.40;;
55288;SDS011;41154;45.394;5.734;2024-02-21T12:47:28;4.53;;;2.78;;
55288;SDS011;41154;45.394;5.734;2024-02-21T12:49:54;6.85;;;2.67;;
55288;SDS011;41154;45.394;5.734;2024-02-21T12:52:19;4.15;;;2.55;;
55288;SDS011;41154;45.394;5.734;2024-02-21T12:54:45;5.43;;;2.80;;
55288;SDS011;41154;45.394;5.734;2024-02-21T12:57:12;6.65;;;2.55;;
55288;SDS011;41154;45.394;5.734;2024-02-21T12:59:38;5.88;;;2.40;;
55288;SDS011;41154;45.394;5.734;2024-02-21T13:02:05;5.45;;;2.47;;
55288;SDS011;41154;45.394;5.734;2024-02-21T13:04:31;4.65;;;2.58;;
55288;SDS011;41154;45.394;5.734;2024-02-21T13:06:57;4.13;;;2.22;;
55288;SDS011;41154;45.394;5.734;2024-02-21T13:09:22;9.10;;;3.95;;
55288;SDS011;41154;45.394;5.734;2024-02-21T13:11:48;3.88;;;2.80;;
55288;SDS011;41154;45.394;5.734;2024-02-21T13:14:16;4.88;;;2.40;;
55288;SDS011;41154;45.394;5.734;2024-02-21T13:16:42;5.13;;;2.45;;
55288;SDS011;41154;45.394;5.734;2024-02-21T13:19:08;4.68;;;2.47;;
55288;SDS011;41154;45.394;5.734;2024-02-21T13:21:34;2.97;;;2.40;;
55288;SDS011;41154;45.394;5.734;2024-02-21T13:24:00;5.05;;;2.60;;
55288;SDS011;41154;45.394;5.734;2024-02-21T13:26:26;4.90;;;2.55;;
55288;SDS011;41154;45.394;5.734;2024-02-21T13:28:52;4.07;;;2.70;;
55288;SDS011;41154;45.394;5.734;2024-02-21T13:31:19;3.40;;;2.28;;
55288;SDS011;41154;45.394;5.734;2024-02-21T13:33:45;3.83;;;2.55;;
55288;SDS011;41154;45.394;5.734;2024-02-21T13:36:11;3.03;;;2.05;;
55288;SDS011;41154;45.394;5.734;2024-02-21T13:38:37;5.32;;;2.67;;
55288;SDS011;41154;45.394;5.734;2024-02-21T13:41:04;4.63;;;2.20;;
55288;SDS011;41154;45.394;5.734;2024-02-21T13:43:31;5.43;;;2.67;;
55288;SDS011;41154;45.394;5.734;2024-02-21T13:46:00;7.28;;;2.50;;
55288;SDS011;41154;45.394;5.734;2024-02-21T13:48:35;5.18;;;2.30;;
55288;SDS011;41154;45.394;5.734;2024-02-21T13:51:01;3.95;;;2.40;;
55288;SDS011;41154;45.394;5.734;2024-02-21T13:53:27;6.53;;;2.25;;
55288;SDS011;41154;45.394;5.734;2024-02-21T13:55:53;4.28;;;2.20;;
55288;SDS011;41154;45.394;5.734;2024-02-21T13:58:19;6.63;;;2.40;;
55288;SDS011;41154;45.394;5.734;2024-02-21T14:00:46;5.55;;;2.58;;
55288;SDS011;41154;45.394;5.734;2024-02-21T14:03:12;5.68;;;2.80;;
55288;SDS011;41154;45.394;5.734;2024-02-21T14:05:38;8.48;;;3.35;;
55288;SDS011;41154;45.394;5.734;2024-02-21T14:08:05;7.55;;;2.25;;
55288;SDS011;41154;45.394;5.734;2024-02-21T14:10:32;4.32;;;2.80;;
55288;SDS011;41154;45.394;5.734;2024-02-21T14:12:58;6.93;;;3.05;;
55288;SDS011;41154;45.394;5.734;2024-02-21T14:15:24;7.63;;;2.90;;
55288;SDS011;41154;45.394;5.734;2024-02-21T14:17:50;3.95;;;2.25;;
55288;SDS011;41154;45.394;5.734;2024-02-21T14:20:16;3.95;;;2.10;;
55288;SDS011;41154;45.394;5.734;2024-02-21T14:22:42;4.53;;;2.17;;
55288;SDS011;41154;45.394;5.734;2024-02-21T14:25:08;5.40;;;2.67;;
55288;SDS011;41154;45.394;5.734;2024-02-21T14:27:34;5.03;;;2.28;;
55288;SDS011;41154;45.394;5.734;2024-02-21T14:30:02;3.97;;;2.35;;
55288;SDS011;41154;45.394;5.734;2024-02-21T14:32:28;7.68;;;2.40;;
55288;SDS011;41154;45.394;5.734;2024-02-21T14:34:54;4.13;;;2.50;;
55288;SDS011;41154;45.394;5.734;2024-02-21T14:37:20;4.57;;;2.33;;
55288;SDS011;41154;45.394;5.734;2024-02-21T14:39:47;6.80;;;2.47;;
55288;SDS011;41154;45.394;5.734;2024-02-21T14:42:12;4.18;;;2.30;;
55288;SDS011;41154;45.394;5.734;2024-02-21T14:44:38;4.18;;;2.10;;